Time;durP1;ratioP1;P1;durP2;ratioP2;P2;SDS_P1;SDS_P2;PMS_P1;PMS_P2;Temp;Humidity;BMP_temperature;BMP_pressure;BME280_temperature;BME280_humidity;BME280_pressure;Samples;Min_cycle;Max_cycle;Signal;HPM_P1;HPM_P2
2021/05/01 00:02:23;;;;;;;;;;;;;;;13.45;92.20;101269.09;1751380;82;20186;-69
2021/05/01 00:04:55;;;;;;;;;;;;;;;13.46;92.00;101267.41;1751384;82;20229;-68
2021/05/01 00:07:27;;;;;;;;;;;;;;;13.44;91.83;101271.03;1751461;82;20229;-68
2021/05/01 00:09:58;;;;;;;;;;;;;;;13.43;91.78;101269.34;1745148;82;20234;-71
2021/05/01 00:12:30;;;;;;;;;;;;;;;13.41;91.75;101271.57;1732292;83;20622;-68
2021/05/01 00:15:01;;;;;;;;;;;;;;;13.40;91.77;101275.47;1732094;83;20286;-69
2021/05/01 00:17:33;;;;;;;;;;;;;;;13.37;91.80;101266.23;1732158;83;20289;-68
2021/05/01 00:20:06;;;;;;;;;;;;;;;13.38;91.92;101268.47;1732064;83;20253;-69
2021/05/01 00:22:37;;;;;;;;;;;;;;;13.36;91.88;101265.08;1732269;83;20230;-68
2021/05/01 00:25:10;;;;;;;;;;;;;;;13.35;92.07;101255.89;1732180;83;20301;-68
2021/05/01 00:27:42;;;;;;;;;;;;;;;13.40;92.08;101260.67;1732298;83;20333;-69
2021/05/01 00:30:14;;;;;;;;;;;;;;;13.46;92.01;101258.22;1699206;84;20340;-68
2021/05/01 00:32:45;;;;;;;;;;;;;;;13.55;92.00;101269.16;1699500;84;20174;-70
2021/05/01 00:35:17;;;;;;;;;;;;;;;13.65;91.85;101268.72;1699353;84;20190;-70
2021/05/01 00:37:49;;;;;;;;;;;;;;;13.67;91.30;101267.89;1699219;83;20636;-70
2021/05/01 00:40:21;;;;;;;;;;;;;;;13.65;91.09;101265.07;1699344;84;20216;-68
2021/05/01 00:42:52;;;;;;;;;;;;;;;13.62;91.03;101263.66;1699287;84;20177;-69
2021/05/01 00:45:23;;;;;;;;;;;;;;;13.66;91.22;101267.60;1709227;83;20286;-70
2021/05/01 00:47:55;;;;;;;;;;;;;;;13.74;91.09;101276.05;1732209;83;20341;-69
2021/05/01 00:50:26;;;;;;;;;;;;;;;13.79;90.80;101274.66;1732243;83;20258;-69
2021/05/01 00:52:58;;;;;;;;;;;;;;;13.78;90.56;101268.27;1732467;83;20670;-70
2021/05/01 00:55:32;;;;;;;;;;;;;;;13.82;90.31;101270.78;1728343;83;20258;-69
2021/05/01 00:58:04;;;;;;;;;;;;;;;13.80;89.94;101271.61;1732386;83;20289;-69
2021/05/01 01:00:52;;;;;;;;;;;;;;;13.73;89.86;101266.81;1732271;83;20258;-69
2021/05/01 01:03:09;;;;;;;;;;;;;;;13.74;89.93;101269.07;1730057;83;20298;-70
2021/05/01 01:05:41;;;;;;;;;;;;;;;13.80;89.84;101273.01;1732674;83;20527;-70
2021/05/01 01:08:13;;;;;;;;;;;;;;;13.84;89.37;101269.98;1732644;83;20254;-71
2021/05/01 01:10:44;;;;;;;;;;;;;;;13.73;89.05;101268.21;1734501;82;20254;-69
2021/05/01 01:13:16;;;;;;;;;;;;;;;13.66;89.39;101268.14;1741959;82;20181;-70
2021/05/01 01:15:47;;;;;;;;;;;;;;;13.71;89.57;101263.47;1741811;82;20178;-71
2021/05/01 01:18:19;;;;;;;;;;;;;;;13.76;89.14;101269.06;1741749;82;20226;-70
2021/05/01 01:20:52;;;;;;;;;;;;;;;13.74;88.87;101267.09;1741791;82;20174;-69
2021/05/01 01:23:24;;;;;;;;;;;;;;;13.70;88.79;101272.09;1741867;82;20190;-69
2021/05/01 01:25:56;;;;;;;;;;;;;;;13.76;88.99;101270.45;1741822;82;20245;-70
2021/05/01 01:28:28;;;;;;;;;;;;;;;13.82;88.71;101276.36;1741849;82;20526;-67
2021/05/01 01:30:59;;;;;;;;;;;;;;;13.86;88.35;101280.31;1741748;82;20558;-70
2021/05/01 01:33:32;;;;;;;;;;;;;;;13.89;88.10;101274.75;1741930;82;20219;-68
2021/05/01 01:36:05;;;;;;;;;;;;;;;13.89;87.85;101275.61;1741847;82;20178;-68
2021/05/01 01:38:37;;;;;;;;;;;;;;;13.91;87.66;101287.34;1741831;82;20178;-69
2021/05/01 01:41:08;;;;;;;;;;;;;;;13.89;87.42;101281.73;1741925;82;20226;-70
2021/05/01 01:43:40;;;;;;;;;;;;;;;13.88;87.33;101286.46;1741838;82;20186;-70
2021/05/01 01:46:11;;;;;;;;;;;;;;;13.87;87.24;101297.34;1741997;82;20530;-70
2021/05/01 01:48:43;;;;;;;;;;;;;;;13.87;87.06;101302.93;1741854;82;20185;-69
2021/05/01 01:51:15;;;;;;;;;;;;;;;13.83;86.91;101297.61;1741909;82;20222;-69
2021/05/01 01:53:46;;;;;;;;;;;;;;;13.83;87.07;101299.01;1742096;82;20514;-70
2021/05/01 01:56:18;;;;;;;;;;;;;;;13.86;87.02;101304.05;1742007;82;20531;-68
2021/05/01 01:58:50;;;;;;;;;;;;;;;13.82;86.70;101309.86;1741884;82;20252;-70
2021/05/01 02:01:22;;;;;;;;;;;;;;;13.72;86.67;101318.71;1741866;82;20264;-69
2021/05/01 02:03:54;;;;;;;;;;;;;;;13.60;86.84;101319.44;1741944;82;20193;-68
2021/05/01 02:06:25;;;;;;;;;;;;;;;13.53;87.07;101321.06;1742047;82;20257;-70
2021/05/01 02:08:57;;;;;;;;;;;;;;;13.49;87.43;101322.69;1742093;82;20186;-69
2021/05/01 02:11:29;;;;;;;;;;;;;;;13.56;87.87;101320.52;1741837;82;20185;-69
2021/05/01 02:14:01;;;;;;;;;;;;;;;13.53;87.57;101322.46;1741901;82;20345;-70
2021/05/01 02:16:33;;;;;;;;;;;;;;;13.46;87.70;101327.39;1742753;82;20190;-68
2021/05/01 02:19:05;;;;;;;;;;;;;;;13.46;88.02;101327.39;1713918;84;20259;-69
2021/05/01 02:21:37;;;;;;;;;;;;;;;13.47;87.89;101332.43;1736707;82;20222;-68
2021/05/01 02:24:09;;;;;;;;;;;;;;;13.39;87.96;101337.92;1741823;82;20256;-69
2021/05/01 02:26:41;;;;;;;;;;;;;;;13.30;88.26;101331.69;1702133;82;20183;-69
2021/05/01 02:29:12;;;;;;;;;;;;;;;13.27;88.79;101335.84;1743333;82;20217;-68
2021/05/01 02:31:44;;;;;;;;;;;;;;;13.28;88.81;101333.37;1743553;82;20590;-68
2021/05/01 02:34:16;;;;;;;;;;;;;;;13.31;88.87;101335.61;1742553;82;20530;-69
2021/05/01 02:36:48;;;;;;;;;;;;;;;13.33;88.69;101339.55;1741871;82;20181;-71
2021/05/01 02:39:19;;;;;;;;;;;;;;;13.26;88.64;101338.34;1742037;82;20515;-72
2021/05/01 02:41:51;;;;;;;;;;;;;;;13.22;89.00;101344.17;1741775;82;20178;-71
2021/05/01 02:44:23;;;;;;;;;;;;;;;13.31;89.28;101348.17;1741837;82;20178;-71
2021/05/01 02:46:54;;;;;;;;;;;;;;;13.27;88.99;101355.36;1741918;82;20407;-72
2021/05/01 02:49:26;;;;;;;;;;;;;;;13.24;89.08;101362.87;1741841;81;20186;-70
2021/05/01 02:51:58;;;;;;;;;;;;;;;13.21;89.11;101361.98;1741898;82;20185;-71
2021/05/01 02:54:29;;;;;;;;;;;;;;;13.19;89.06;101358.63;1741830;82;20206;-70
2021/05/01 02:57:03;;;;;;;;;;;;;;;13.21;89.20;101353.62;1741843;82;20189;-71
2021/05/01 02:59:35;;;;;;;;;;;;;;;13.20;89.04;101354.73;1741824;82;20190;-71
2021/05/01 03:02:08;;;;;;;;;;;;;;;13.22;89.39;101348.36;1741786;81;20186;-71
2021/05/01 03:04:40;;;;;;;;;;;;;;;13.36;89.47;101352.95;1741747;82;20185;-73
2021/05/01 03:07:11;;;;;;;;;;;;;;;13.48;89.20;101360.07;1742006;82;20201;-71
2021/05/01 03:09:44;;;;;;;;;;;;;;;13.55;88.78;101359.30;1741984;82;20542;-71
2021/05/01 03:12:16;;;;;;;;;;;;;;;13.63;88.55;101364.97;1699824;82;20179;-69
2021/05/01 03:14:47;;;;;;;;;;;;;;;13.70;88.32;101364.20;1706700;84;20230;-70
2021/05/01 03:17:19;;;;;;;;;;;;;;;13.80;88.01;101372.11;1706567;84;20285;-71
2021/05/01 03:19:50;;;;;;;;;;;;;;;13.85;87.62;101376.34;1706517;84;20251;-70
2021/05/01 03:22:22;;;;;;;;;;;;;;;13.89;87.28;101371.92;1706752;84;20606;-69
2021/05/01 03:24:54;;;;;;;;;;;;;;;13.92;87.05;101371.92;1706539;84;20592;-71
2021/05/01 03:27:25;;;;;;;;;;;;;;;13.96;86.86;101383.70;1706734;84;20289;-70
2021/05/01 03:29:57;;;;;;;;;;;;;;;14.00;86.73;101375.07;1706494;84;20592;-72
2021/05/01 03:32:29;;;;;;;;;;;;;;;14.05;86.49;101377.09;1706492;84;20273;-70
2021/05/01 03:35:00;;;;;;;;;;;;;;;14.07;85.97;101381.30;1706578;83;20258;-72
2021/05/01 03:37:32;;;;;;;;;;;;;;;14.04;85.87;101379.02;1706731;84;20250;-70
2021/05/01 03:40:05;;;;;;;;;;;;;;;14.02;85.67;101391.56;1706597;84;20262;-71
2021/05/01 03:42:37;;;;;;;;;;;;;;;13.96;85.70;101388.44;1706522;84;20291;-70
2021/05/01 03:45:09;;;;;;;;;;;;;;;13.89;86.15;101390.08;1706607;84;20254;-70
2021/05/01 03:47:41;;;;;;;;;;;;;;;13.95;86.43;101390.41;1706520;84;20231;-73
2021/05/01 03:50:13;;;;;;;;;;;;;;;13.98;86.35;101398.23;1706597;84;20385;-72
2021/05/01 03:52:44;;;;;;;;;;;;;;;13.98;86.33;101398.78;1706465;84;20265;-72
2021/05/01 03:55:16;;;;;;;;;;;;;;;13.99;86.71;101404.10;1706555;84;20281;-71
2021/05/01 03:57:49;;;;;;;;;;;;;;;14.09;86.95;101400.02;1704065;84;20254;-72
2021/05/01 04:00:21;;;;;;;;;;;;;;;14.23;86.88;101401.84;1706471;84;20287;-70
2021/05/01 04:02:53;;;;;;;;;;;;;;;14.32;86.78;101408.07;1706495;84;20290;-73
2021/05/01 04:05:25;;;;;;;;;;;;;;;14.45;86.88;101414.59;1706487;84;20260;-70
2021/05/01 04:07:57;;;;;;;;;;;;;;;14.62;86.75;101413.88;1706512;83;20255;-69
2021/05/01 04:10:28;;;;;;;;;;;;;;;14.77;86.25;101420.09;1706463;84;20297;-70
2021/05/01 04:13:01;;;;;;;;;;;;;;;14.94;86.19;101414.62;1706516;84;20306;-69
2021/05/01 04:15:32;;;;;;;;;;;;;;;15.20;86.01;101422.02;1737096;80;20630;-71
2021/05/01 04:18:04;;;;;;;;;;;;;;;15.48;85.32;101427.21;1744661;82;20246;-68
2021/05/01 04:20:35;;;;;;;;;;;;;;;15.79;84.78;101426.17;1744182;82;20444;-70
2021/05/01 04:23:08;;;;;;;;;;;;;;;16.08;83.67;101427.31;1744192;82;20262;-69
2021/05/01 04:25:40;;;;;;;;;;;;;;;16.47;83.20;101422.89;1744425;81;20594;-68
2021/05/01 04:28:11;;;;;;;;;;;;;;;16.98;82.07;101418.86;1745714;82;20194;-68
2021/05/01 04:30:43;;;;;;;;;;;;;;;17.51;80.68;101409.70;1745721;82;20519;-71
2021/05/01 04:33:14;;;;;;;;;;;;;;;18.05;78.81;101416.11;1745924;82;20186;-73
2021/05/01 04:35:46;;;;;;;;;;;;;;;18.59;76.98;101409.19;1745918;82;20590;-70
2021/05/01 04:38:17;;;;;;;;;;;;;;;19.15;74.98;101412.26;1745852;82;20270;-70
2021/05/01 04:40:51;;;;;;;;;;;;;;;19.65;72.88;101413.89;1745645;82;20555;-70
2021/05/01 04:43:26;;;;;;;;;;;;;;;20.16;71.02;101411.16;1744255;82;20265;-68
2021/05/01 04:45:58;;;;;;;;;;;;;;;20.70;69.56;101402.32;1745181;82;20591;-69
2021/05/01 04:48:30;;;;;;;;;;;;;;;21.22;67.40;101402.47;1744975;80;20357;-70
2021/05/01 04:51:02;;;;;;;;;;;;;;;21.54;65.67;101408.84;1742503;81;20234;-71
2021/05/01 04:53:33;;;;;;;;;;;;;;;21.91;64.40;101404.91;1745427;81;20279;-68
2021/05/01 04:56:12;;;;;;;;;;;;;;;22.29;62.55;101408.50;1744376;82;20575;-71
2021/05/01 04:58:44;;;;;;;;;;;;;;;22.66;60.79;101406.72;1744200;81;20675;-70
2021/05/01 05:01:18;;;;;;;;;;;;;;;23.05;59.72;101414.45;1744534;82;20253;-70
2021/05/01 05:03:51;;;;;;;;;;;;;;;23.37;58.11;101409.86;1743706;81;20221;-72
2021/05/01 05:06:23;;;;;;;;;;;;;;;23.64;57.42;101403.34;1750216;81;20335;-71
2021/05/01 05:08:55;;;;;;;;;;;;;;;24.03;56.76;101404.68;1745236;81;20225;-70
2021/05/01 05:11:29;;;;;;;;;;;;;;;24.42;55.47;101403.11;1749538;81;20588;-68
2021/05/01 05:14:01;;;;;;;;;;;;;;;24.59;53.89;101400.86;1747291;81;20216;-74
2021/05/01 05:16:33;;;;;;;;;;;;;;;24.79;53.31;101403.83;1744381;81;20300;-68
2021/05/01 05:19:05;;;;;;;;;;;;;;;24.99;51.58;101400.25;1747012;81;20604;-72
2021/05/01 05:21:37;;;;;;;;;;;;;;;25.09;50.30;101401.31;1750935;81;20671;-68
2021/05/01 05:24:08;;;;;;;;;;;;;;;25.05;49.95;101403.77;1747359;81;20524;-67
2021/05/01 05:26:40;;;;;;;;;;;;;;;25.01;50.69;101405.61;1745444;81;20258;-70
2021/05/01 05:29:12;;;;;;;;;;;;;;;25.01;50.66;101399.92;1744529;82;20250;-72
2021/05/01 05:31:44;;;;;;;;;;;;;;;25.03;50.81;101402.67;1744186;82;20261;-69
2021/05/01 05:34:16;;;;;;;;;;;;;;;25.09;50.05;101400.47;1747949;82;20536;-71
2021/05/01 05:36:47;;;;;;;;;;;;;;;25.03;50.41;101393.30;1743717;81;20264;-73
2021/05/01 05:39:19;;;;;;;;;;;;;;;24.99;50.04;101390.91;1757784;81;20192;-69
2021/05/01 05:41:51;;;;;;;;;;;;;;;24.90;50.66;101398.04;1744612;82;20289;-74
2021/05/01 05:44:24;;;;;;;;;;;;;;;24.89;50.34;101394.11;1750799;81;20244;-74
2021/05/01 05:46:55;;;;;;;;;;;;;;;24.95;50.03;101397.86;1732817;80;20239;-68
2021/05/01 05:49:28;;;;;;;;;;;;;;;25.08;49.63;101401.07;1741885;80;20183;-69
2021/05/01 05:51:59;;;;;;;;;;;;;;;25.21;49.99;101390.63;1735903;82;20254;-69
2021/05/01 05:54:31;;;;;;;;;;;;;;;25.44;50.21;101388.64;1743785;82;20187;-69
2021/05/01 05:57:02;;;;;;;;;;;;;;;25.62;48.95;101386.53;1746191;82;20208;-67
2021/05/01 05:59:36;;;;;;;;;;;;;;;25.69;49.17;101392.50;1746103;82;20195;-67
2021/05/01 06:02:09;;;;;;;;;;;;;;;25.79;48.46;101390.08;1741019;81;20285;-69
2021/05/01 06:05:04;;;;;;;;;;;;;;;25.85;48.57;101395.00;1743741;81;20335;-69
2021/05/01 06:07:40;;;;;;;;;;;;;;;25.76;48.09;101395.63;1744376;81;20279;-69
2021/05/01 06:10:12;;;;;;;;;;;;;;;25.69;48.85;101399.05;1746868;80;20586;-69
2021/05/01 06:12:44;;;;;;;;;;;;;;;25.79;48.81;101394.96;1744384;81;20596;-69
2021/05/01 06:15:16;;;;;;;;;;;;;;;25.80;49.15;101398.89;1750477;81;20299;-69
2021/05/01 06:17:49;;;;;;;;;;;;;;;25.72;48.96;101406.87;1733537;81;20283;-68
2021/05/01 06:20:21;;;;;;;;;;;;;;;25.72;49.16;101400.38;1730928;82;20313;-71
2021/05/01 06:22:53;;;;;;;;;;;;;;;25.87;48.14;101406.30;1735711;82;20208;-71
2021/05/01 06:25:25;;;;;;;;;;;;;;;26.09;47.75;101403.73;1733011;83;20262;-73
2021/05/01 06:27:56;;;;;;;;;;;;;;;26.20;46.91;101409.27;1728584;83;20238;-70
2021/05/01 06:30:28;;;;;;;;;;;;;;;26.25;46.72;101414.73;1720348;82;20189;-72
2021/05/01 06:33:02;;;;;;;;;;;;;;;26.31;46.52;101404.79;1707122;83;20189;-70
2021/05/01 06:35:34;;;;;;;;;;;;;;;26.32;46.90;101415.00;1701046;82;20521;-70
2021/05/01 06:38:07;;;;;;;;;;;;;;;26.40;46.84;101408.41;1715753;83;20198;-69
2021/05/01 06:40:48;;;;;;;;;;;;;;;26.56;47.09;101421.70;1725485;83;20551;-72
2021/05/01 06:43:25;;;;;;;;;;;;;;;26.78;47.18;101417.04;1698532;84;20564;-73
2021/05/01 06:45:56;;;;;;;;;;;;;;;27.02;46.41;101420.55;1730113;82;20248;-70
2021/05/01 06:48:30;;;;;;;;;;;;;;;27.03;46.04;101428.14;1733663;83;20540;-66
2021/05/01 06:51:02;;;;;;;;;;;;;;;27.00;45.87;101425.17;1731132;83;20226;-69
2021/05/01 06:53:37;;;;;;;;;;;;;;;26.88;45.77;101429.41;1728406;83;20186;-72
2021/05/01 06:56:12;;;;;;;;;;;;;;;26.76;45.80;101427.13;1751549;81;20707;-71
2021/05/01 06:58:45;;;;;;;;;;;;;;;26.67;46.43;101424.94;1760200;81;20601;-68
2021/05/01 07:01:18;;;;;;;;;;;;;;;26.60;46.17;101424.67;1748405;81;20572;-70
2021/05/01 07:03:53;;;;;;;;;;;;;;;26.47;46.69;101420.08;1750309;81;20604;-71
2021/05/01 07:06:26;;;;;;;;;;;;;;;26.39;47.34;101408.98;1742959;81;20275;-73
2021/05/01 07:08:59;;;;;;;;;;;;;;;26.44;47.02;101420.76;1748537;81;20747;-71
2021/05/01 07:11:38;;;;;;;;;;;;;;;26.49;47.16;101425.67;1737444;81;20267;-76
2021/05/01 07:15:01;;;;;;;;;;;;;;;26.52;47.62;101422.11;1724108;82;20188;-77
2021/05/01 07:20:14;;;;;;;;;;;;;;;26.47;47.31;101422.92;1653142;85;20284;-73
2021/05/01 07:23:28;;;;;;;;;;;;;;;26.44;47.71;101422.19;1650488;85;20262;-74
2021/05/01 07:26:12;;;;;;;;;;;;;;;26.38;48.09;101421.58;1686092;83;20265;-71
2021/05/01 07:28:45;;;;;;;;;;;;;;;26.37;47.18;101429.03;1735079;81;20587;-68
2021/05/01 07:31:27;;;;;;;;;;;;;;;26.29;48.04;101432.23;1726357;82;20336;-70
2021/05/01 07:33:59;;;;;;;;;;;;;;;26.13;47.43;101430.32;1735438;81;20244;-70
2021/05/01 07:36:43;;;;;;;;;;;;;;;25.95;48.18;101434.47;1748179;80;20185;-68
2021/05/01 07:39:16;;;;;;;;;;;;;;;25.80;48.29;101433.05;1750901;81;20292;-70
2021/05/01 07:41:56;;;;;;;;;;;;;;;25.53;48.82;101427.83;1748621;80;20193;-73
2021/05/01 07:44:23;;;;;;;;;;;;;;;25.34;49.53;101436.53;1742188;81;20356;-68
2021/05/01 07:46:59;;;;;;;;;;;;;;;25.16;49.53;101437.73;1747814;81;20190;-66
2021/05/01 07:49:45;;;;;;;;;;;;;;;24.97;49.86;101437.30;1722388;82;20217;-69
2021/05/01 07:52:18;;;;;;;;;;;;;;;24.65;50.28;101442.98;1748446;80;20332;-71
2021/05/01 07:54:50;;;;;;;;;;;;;;;24.44;51.20;101444.78;1750041;80;20261;-70
2021/05/01 07:57:23;;;;;;;;;;;;;;;24.26;51.32;101436.62;1724729;82;20213;-70
2021/05/01 08:00:13;;;;;;;;;;;;;;;24.09;52.02;101436.60;1730836;81;20220;-71
2021/05/01 08:03:05;;;;;;;;;;;;;;;23.83;52.54;101431.45;1740478;81;20288;-70
2021/05/01 08:05:37;;;;;;;;;;;;;;;23.67;53.10;101445.83;1728440;82;20351;-69
2021/05/01 08:08:09;;;;;;;;;;;;;;;23.57;53.57;101440.45;1690440;82;20289;-72
2021/05/01 08:10:53;;;;;;;;;;;;;;;23.43;54.07;101442.01;1707787;82;20318;-69
2021/05/01 08:13:37;;;;;;;;;;;;;;;23.30;54.46;101440.13;1589904;88;20269;-67
2021/05/01 08:16:09;;;;;;;;;;;;;;;23.14;54.94;101440.82;1602849;86;20736;-69
2021/05/01 08:18:43;;;;;;;;;;;;;;;23.09;54.82;101439.54;1610531;88;20197;-68
2021/05/01 08:21:15;;;;;;;;;;;;;;;22.99;55.11;101444.09;1615379;89;20208;-64
2021/05/01 08:23:47;;;;;;;;;;;;;;;22.98;55.77;101436.75;1613361;88;20248;-64
2021/05/01 08:26:18;;;;;;;;;;;;;;;23.03;55.83;101438.03;1615610;87;20251;-68
2021/05/01 08:28:50;;;;;;;;;;;;;;;23.06;55.71;101443.04;1614628;87;20272;-72
2021/05/01 08:31:22;;;;;;;;;;;;;;;23.07;55.74;101451.79;1615245;87;20306;-66
2021/05/01 08:33:53;;;;;;;;;;;;;;;23.07;55.64;101461.71;1610695;88;20261;-67
2021/05/01 08:36:27;;;;;;;;;;;;;;;23.14;55.82;101463.49;1612082;88;20535;-67
2021/05/01 08:38:59;;;;;;;;;;;;;;;23.16;55.29;101465.45;1699272;82;20250;-68
2021/05/01 08:41:31;;;;;;;;;;;;;;;23.06;55.35;101465.71;1759241;80;20524;-70
2021/05/01 08:44:07;;;;;;;;;;;;;;;22.93;55.60;101469.47;1756164;80;20179;-68
2021/05/01 08:46:39;;;;;;;;;;;;;;;22.82;55.64;101460.97;1756524;80;20289;-67
2021/05/01 08:49:13;;;;;;;;;;;;;;;22.71;56.00;101459.00;1754511;80;20186;-65
2021/05/01 08:51:45;;;;;;;;;;;;;;;22.72;56.08;101458.39;1717380;81;20235;-65
2021/05/01 08:54:17;;;;;;;;;;;;;;;22.72;56.07;101462.64;1690512;83;20249;-65
2021/05/01 08:56:49;;;;;;;;;;;;;;;22.67;56.28;101455.72;1765531;80;20991;-64
2021/05/01 08:59:21;;;;;;;;;;;;;;;22.63;56.42;101457.52;1768465;80;20228;-67
2021/05/01 09:01:52;;;;;;;;;;;;;;;22.53;56.65;101452.94;1725480;81;20266;-66
2021/05/01 09:04:25;;;;;;;;;;;;;;;22.47;56.84;101451.39;1768843;80;20182;-66
2021/05/01 09:06:57;;;;;;;;;;;;;;;22.41;57.23;101457.45;1774042;80;20188;-65
2021/05/01 09:09:33;;;;;;;;;;;;;;;22.30;57.45;101461.72;1733359;81;20304;-67
2021/05/01 09:12:06;;;;;;;;;;;;;;;22.26;57.80;101453.59;1724395;81;20288;-69
2021/05/01 09:14:38;;;;;;;;;;;;;;;22.22;57.91;101450.58;1758501;80;20253;-69
2021/05/01 09:17:12;;;;;;;;;;;;;;;22.23;58.38;101444.31;1755754;80;20280;-69
2021/05/01 09:19:44;;;;;;;;;;;;;;;22.25;58.42;101440.61;1744906;80;20278;-68
2021/05/01 09:22:16;;;;;;;;;;;;;;;22.25;58.15;101440.61;1712211;82;20190;-72
2021/05/01 09:24:47;;;;;;;;;;;;;;;22.23;58.29;101445.73;1705547;83;20507;-68
2021/05/01 09:27:19;;;;;;;;;;;;;;;22.20;58.71;101447.20;1712931;82;20241;-68
2021/05/01 09:29:50;;;;;;;;;;;;;;;22.13;58.24;101448.83;1708413;82;20328;-69
2021/05/01 09:32:23;;;;;;;;;;;;;;;21.99;58.48;101460.73;1674664;83;20305;-68
2021/05/01 09:34:55;;;;;;;;;;;;;;;21.79;58.76;101463.45;1708634;83;20260;-68
2021/05/01 09:37:29;;;;;;;;;;;;;;;21.60;59.39;101463.28;1709169;83;20186;-69
2021/05/01 09:40:01;;;;;;;;;;;;;;;21.52;60.03;101462.61;1702672;82;20201;-68
2021/05/01 09:42:36;;;;;;;;;;;;;;;21.47;60.15;101464.94;1698247;84;20204;-69
2021/05/01 09:45:21;;;;;;;;;;;;;;;21.48;60.42;101459.58;1701673;84;20197;-70
2021/05/01 09:47:54;;;;;;;;;;;;;;;21.48;60.36;101465.23;1698064;84;20207;-68
2021/05/01 09:50:27;;;;;;;;;;;;;;;21.49;60.58;101470.28;1683921;85;20536;-69
2021/05/01 09:53:00;;;;;;;;;;;;;;;21.44;60.52;101465.58;1684390;85;20441;-69
2021/05/01 09:55:59;;;;;;;;;;;;;;;21.41;60.88;101463.96;1684079;84;20238;-69
2021/05/01 09:58:27;;;;;;;;;;;;;;;21.41;60.87;101471.03;1684131;85;20295;-69
2021/05/01 10:01:11;;;;;;;;;;;;;;;21.29;61.28;101472.12;1684175;85;20195;-69
2021/05/01 10:03:43;;;;;;;;;;;;;;;21.19;61.56;101467.50;1684103;84;20266;-68
2021/05/01 10:06:17;;;;;;;;;;;;;;;21.14;61.85;101466.19;1684203;84;20255;-69
2021/05/01 10:08:55;;;;;;;;;;;;;;;21.18;61.87;101466.39;1684300;84;20374;-69
2021/05/01 10:11:29;;;;;;;;;;;;;;;21.17;61.76;101449.19;1684288;84;20199;-70
2021/05/01 10:14:03;;;;;;;;;;;;;;;21.20;61.79;101452.78;1684081;85;20228;-69
2021/05/01 10:16:35;;;;;;;;;;;;;;;21.28;61.69;101453.49;1684204;85;20267;-69
2021/05/01 10:19:12;;;;;;;;;;;;;;;21.36;61.45;101444.28;1684258;84;20587;-71
2021/05/01 10:21:46;;;;;;;;;;;;;;;21.46;61.43;101442.66;1677729;85;20558;-67
2021/05/01 10:24:16;;;;;;;;;;;;;;;21.57;61.04;101443.53;1665072;86;20199;-69
2021/05/01 10:26:51;;;;;;;;;;;;;;;21.68;61.00;101452.66;1677678;85;20351;-69
2021/05/01 10:29:41;;;;;;;;;;;;;;;21.78;60.52;101448.21;1694931;85;20246;-71
2021/05/01 10:32:28;;;;;;;;;;;;;;;21.88;60.07;101446.58;1694496;84;20234;-71
2021/05/01 10:34:50;;;;;;;;;;;;;;;21.91;59.84;101449.61;1690570;85;20208;-68
2021/05/01 10:37:22;;;;;;;;;;;;;;;21.92;59.67;101437.70;1692751;85;20268;-69
2021/05/01 10:39:58;;;;;;;;;;;;;;;21.91;59.89;101438.86;1695094;85;20220;-67
2021/05/01 10:42:34;;;;;;;;;;;;;;;21.93;59.83;101439.37;1694888;85;20300;-72
2021/05/01 10:46:06;;;;;;;;;;;;;;;21.94;59.68;101442.48;1627725;87;20250;-68
2021/05/01 10:48:49;;;;;;;;;;;;;;;21.94;59.24;101438.24;1652099;86;20196;-67
2021/05/01 10:51:24;;;;;;;;;;;;;;;21.94;59.62;101431.16;1723436;83;20253;-69
2021/05/01 10:54:14;;;;;;;;;;;;;;;21.95;59.99;101425.77;1723479;82;20321;-70
2021/05/01 10:56:51;;;;;;;;;;;;;;;21.95;60.09;101430.01;1723423;83;20308;-68
2021/05/01 10:59:24;;;;;;;;;;;;;;;21.97;59.68;101439.85;1723442;83;20193;-70
2021/05/01 11:01:57;;;;;;;;;;;;;;;21.95;59.72;101441.32;1723417;83;20230;-70
2021/05/01 11:04:33;;;;;;;;;;;;;;;21.87;59.89;101442.91;1723268;83;20658;-70
2021/05/01 11:07:16;;;;;;;;;;;;;;;21.74;59.33;101445.18;1722718;82;20214;-70
2021/05/01 11:09:46;;;;;;;;;;;;;;;21.60;59.45;101442.07;1723522;83;20273;-71
2021/05/01 11:12:22;;;;;;;;;;;;;;;21.49;59.47;101441.45;1723257;83;20558;-70
2021/05/01 11:15:03;;;;;;;;;;;;;;;21.41;60.12;101437.96;1723426;81;20518;-71
2021/05/01 11:17:48;;;;;;;;;;;;;;;21.38;60.25;101451.29;1722571;83;20244;-70
2021/05/01 11:20:22;;;;;;;;;;;;;;;21.36;60.20;101442.86;1723644;82;20225;-69
2021/05/01 11:22:53;;;;;;;;;;;;;;;21.30;61.07;101446.38;1734543;83;20186;-70
2021/05/01 11:25:29;;;;;;;;;;;;;;;21.34;61.48;101438.11;1740257;82;20594;-70
2021/05/01 11:28:00;;;;;;;;;;;;;;;21.37;61.43;101442.55;1731670;83;20627;-69
2021/05/01 11:30:33;;;;;;;;;;;;;;;21.44;61.45;101437.88;1731543;82;20178;-71
2021/05/01 11:33:09;;;;;;;;;;;;;;;21.49;61.21;101440.60;1714398;83;20245;-70
2021/05/01 11:35:40;;;;;;;;;;;;;;;21.58;60.30;101440.14;1735079;83;20313;-70
2021/05/01 11:38:14;;;;;;;;;;;;;;;21.63;60.17;101436.63;1735459;83;20221;-68
2021/05/01 11:40:47;;;;;;;;;;;;;;;21.63;60.99;101430.97;1734884;82;20190;-69
2021/05/01 11:43:19;;;;;;;;;;;;;;;21.62;60.80;101425.61;1740822;81;20323;-70
2021/05/01 11:46:12;;;;;;;;;;;;;;;21.64;61.53;101424.74;1749354;82;20263;-68
2021/05/01 11:48:53;;;;;;;;;;;;;;;21.70;61.31;101422.92;1749173;82;20282;-69
2021/05/01 11:51:51;;;;;;;;;;;;;;;21.77;61.29;101421.09;1749624;82;20256;-69
2021/05/01 11:54:51;;;;;;;;;;;;;;;21.76;61.09;101426.48;1749947;82;20556;-69
2021/05/01 11:57:46;;;;;;;;;;;;;;;21.80;60.82;101430.34;1749694;81;20247;-70
2021/05/01 12:00:36;;;;;;;;;;;;;;;21.79;60.16;101427.25;1749851;81;20283;-71
2021/05/01 12:03:23;;;;;;;;;;;;;;;21.77;60.42;101422.50;1722688;83;20602;-71
2021/05/01 12:05:57;;;;;;;;;;;;;;;21.77;60.60;101426.15;1729486;83;20265;-68
2021/05/01 12:08:30;;;;;;;;;;;;;;;21.79;60.48;101423.86;1730563;83;20353;-72
2021/05/01 12:11:04;;;;;;;;;;;;;;;21.82;60.02;101428.05;1738852;81;20208;-77
2021/05/01 12:13:40;;;;;;;;;;;;;;;21.83;60.12;101424.06;1763155;81;20263;-71
2021/05/01 12:16:22;;;;;;;;;;;;;;;21.83;60.08;101414.16;1763055;81;20295;-71
2021/05/01 12:18:55;;;;;;;;;;;;;;;21.85;60.37;101413.26;1761423;81;20255;-70
2021/05/01 12:21:44;;;;;;;;;;;;;;;21.86;60.65;101412.09;1763515;80;20287;-70
2021/05/01 12:24:26;;;;;;;;;;;;;;;21.90;60.73;101412.58;1772137;81;20603;-70
2021/05/01 12:26:58;;;;;;;;;;;;;;;21.95;60.62;101409.61;1763712;81;20247;-72
2021/05/01 12:29:32;;;;;;;;;;;;;;;21.99;60.55;101414.05;1772234;81;20188;-72
2021/05/01 12:32:06;;;;;;;;;;;;;;;21.99;60.49;101412.07;1772777;81;20248;-72
2021/05/01 12:34:50;;;;;;;;;;;;;;;21.99;60.41;101412.07;1772894;81;20292;-71
2021/05/01 12:37:23;;;;;;;;;;;;;;;21.99;60.73;101412.63;1770274;81;20655;-69
2021/05/01 12:39:56;;;;;;;;;;;;;;;21.92;60.68;101404.60;1772152;81;20260;-73
2021/05/01 12:42:33;;;;;;;;;;;;;;;21.86;60.72;101412.95;1764005;81;20184;-71
2021/05/01 12:45:24;;;;;;;;;;;;;;;21.79;60.76;101406.89;1772186;81;20200;-70
2021/05/01 12:47:56;;;;;;;;;;;;;;;21.76;60.86;101413.77;1760446;81;20279;-72
2021/05/01 12:50:30;;;;;;;;;;;;;;;21.73;60.93;101411.55;1772791;81;20188;-69
2021/05/01 12:53:28;;;;;;;;;;;;;;;21.68;61.16;101401.20;1772794;81;20259;-70
2021/05/01 12:56:36;;;;;;;;;;;;;;;21.63;61.59;101401.88;1736605;81;20227;-68
2021/05/01 12:59:24;;;;;;;;;;;;;;;21.55;62.04;101393.55;1747811;80;20256;-72
2021/05/01 13:02:05;;;;;;;;;;;;;;;21.51;62.24;101400.98;1759204;80;20345;-69
2021/05/01 13:04:42;;;;;;;;;;;;;;;21.46;62.52;101403.09;1753900;81;20264;-69
2021/05/01 13:07:14;;;;;;;;;;;;;;;21.40;62.78;101400.11;1747527;80;20529;-66
2021/05/01 13:09:51;;;;;;;;;;;;;;;21.35;63.15;101395.97;1764380;80;20315;-69
2021/05/01 13:12:26;;;;;;;;;;;;;;;21.34;62.78;101394.30;1759322;80;20257;-70
2021/05/01 13:15:01;;;;;;;;;;;;;;;21.31;63.15;101393.50;1783448;80;20326;-68
2021/05/01 13:17:37;;;;;;;;;;;;;;;21.29;63.06;101391.02;1775495;80;20291;-68